createdAt,value
2019-03-16T00:02:16.431Z,41.52
2019-03-16T00:07:32.522Z,41.52
2019-03-16T00:12:25.662Z,41.15
2019-03-16T00:17:29.447Z,41.13
2019-03-16T00:22:33.325Z,41.13
2019-03-16T00:27:37.183Z,41.39
2019-03-16T00:32:41.076Z,41.16
2019-03-16T00:37:44.882Z,41.46
2019-03-16T00:42:48.661Z,41.46
2019-03-16T00:47:52.411Z,41.77
2019-03-16T00:52:56.186Z,41.99
2019-03-16T00:58:00.109Z,41.99
2019-03-16T01:03:03.860Z,42.83
2019-03-16T01:08:07.600Z,42.41
2019-03-16T01:13:11.348Z,42.14
2019-03-16T01:18:15.086Z,41.87
2019-03-16T01:23:18.891Z,42.28
2019-03-16T01:28:22.697Z,42.32
2019-03-16T01:33:26.462Z,42.20
2019-03-16T01:38:30.232Z,42.20
2019-03-16T01:43:33.985Z,41.94
2019-03-16T01:48:37.794Z,41.86
2019-03-16T01:53:41.567Z,42.24
2019-03-16T01:58:45.402Z,41.93
2019-03-16T02:03:49.311Z,41.59
2019-03-16T02:08:53.050Z,42.61
2019-03-16T02:13:56.789Z,41.73
2019-03-16T02:19:00.547Z,41.83
2019-03-16T02:24:04.326Z,42.16
2019-03-16T02:29:08.233Z,42.16
2019-03-16T02:34:12.071Z,41.82
2019-03-16T02:39:15.912Z,41.47
2019-03-16T02:44:19.696Z,41.67
2019-03-16T02:49:23.480Z,41.07
2019-03-16T02:54:27.289Z,41.94
2019-03-16T02:59:31.127Z,41.62
2019-03-16T03:04:34.897Z,41.79
2019-03-16T03:09:38.709Z,41.96
2019-03-16T03:14:42.482Z,41.62
2019-03-16T03:19:46.327Z,41.79
2019-03-16T03:24:50.100Z,41.88
2019-03-16T03:29:57.343Z,41.88
2019-03-16T03:34:59.346Z,41.65
2019-03-16T03:40:03.338Z,41.77
2019-03-16T03:45:07.130Z,42.42
2019-03-16T03:50:10.934Z,42.35
2019-03-16T03:55:14.705Z,42.35
2019-03-16T04:00:18.802Z,42.85
2019-03-16T04:05:22.606Z,42.83
2019-03-16T04:10:26.361Z,43.13
2019-03-16T04:15:30.099Z,43.13
2019-03-16T04:20:33.890Z,43.27
2019-03-16T04:25:37.831Z,43.71
2019-03-16T04:30:41.633Z,43.22
2019-03-16T04:35:45.389Z,43.31
2019-03-16T04:40:49.166Z,43.78
2019-03-16T04:45:52.998Z,43.56
2019-03-16T04:50:56.823Z,43.23
2019-03-16T04:56:00.584Z,43.23
2019-03-16T05:01:04.398Z,43.32
2019-03-16T05:06:08.225Z,42.62
2019-03-16T05:11:12.049Z,43.20
2019-03-16T05:16:15.806Z,42.89
2019-03-16T05:21:19.571Z,42.89
2019-03-16T05:26:23.612Z,43.25
2019-03-16T05:31:27.365Z,43.33
2019-03-16T05:36:31.131Z,43.12
2019-03-16T05:41:35.046Z,43.12
2019-03-16T05:46:38.810Z,43.38
2019-03-16T05:51:42.593Z,43.38
2019-03-16T05:56:46.349Z,43.53
2019-03-16T06:01:50.159Z,43.47
2019-03-16T06:06:53.990Z,43.47
2019-03-16T06:11:57.767Z,43.48
2019-03-16T06:17:01.535Z,43.53
2019-03-16T06:22:05.370Z,43.53
2019-03-16T06:27:09.134Z,43.44
2019-03-16T06:32:12.877Z,43.44
2019-03-16T06:37:16.727Z,43.66
2019-03-16T06:42:20.483Z,43.82
2019-03-16T06:47:24.370Z,43.77
2019-03-16T06:52:28.109Z,44.17
2019-03-16T06:57:31.881Z,44.17
2019-03-16T07:02:35.729Z,44.30
2019-03-16T07:07:39.559Z,44.35
2019-03-16T07:12:43.402Z,44.49
2019-03-16T07:17:47.230Z,44.17
2019-03-16T07:22:50.977Z,44.17
2019-03-16T07:27:54.780Z,44.50
2019-03-16T07:32:58.552Z,44.51
2019-03-16T07:38:02.393Z,45.08
2019-03-16T07:43:06.300Z,44.79
2019-03-16T07:48:10.159Z,44.62
2019-03-16T07:53:13.985Z,44.59
2019-03-16T07:58:17.805Z,44.59
2019-03-16T08:03:21.633Z,44.77
2019-03-16T08:08:25.424Z,37.61
2019-03-16T08:13:29.234Z,40.23
2019-03-16T08:18:32.999Z,39.11
2019-03-16T08:23:36.769Z,38.75
2019-03-16T08:28:40.541Z,38.64
2019-03-16T08:33:44.318Z,38.64
2019-03-16T08:38:48.062Z,38.83
2019-03-16T08:43:51.835Z,39.06
2019-03-16T08:48:55.589Z,39.15
2019-03-16T08:53:59.448Z,39.88
2019-03-16T08:59:03.407Z,39.88
2019-03-16T09:04:07.171Z,40.09
2019-03-16T09:09:11.025Z,40.58
2019-03-16T09:14:14.833Z,41.38
2019-03-16T09:19:18.600Z,41.08
2019-03-16T09:24:22.355Z,41.47
2019-03-16T09:29:26.155Z,41.52
2019-03-16T09:34:29.886Z,41.52
2019-03-16T09:39:33.756Z,42.05
2019-03-16T09:44:37.577Z,42.36
2019-03-16T09:49:41.335Z,42.90
2019-03-16T09:54:45.183Z,42.90
2019-03-16T09:59:49.001Z,43.14
2019-03-16T10:04:52.775Z,42.68
2019-03-16T10:09:56.562Z,42.68
2019-03-16T10:15:00.472Z,43.40
2019-03-16T10:20:04.665Z,43.40
2019-03-16T10:25:08.723Z,43.74
2019-03-16T10:30:12.484Z,43.74
2019-03-16T10:35:16.249Z,43.93
2019-03-16T10:40:20.015Z,43.94
2019-03-16T10:45:23.933Z,43.94
2019-03-16T10:50:27.688Z,44.14
2019-03-16T10:55:31.549Z,44.67
2019-03-16T11:00:35.355Z,44.67
2019-03-16T11:05:39.158Z,44.56
2019-03-16T11:10:42.914Z,44.71
2019-03-16T11:15:46.678Z,44.91
2019-03-16T11:20:50.476Z,44.90
2019-03-16T11:25:54.311Z,44.94
2019-03-16T11:30:58.088Z,45.24
2019-03-16T11:36:01.885Z,45.55
2019-03-16T11:41:05.676Z,45.20
2019-03-16T11:46:09.466Z,45.12
2019-03-16T11:51:13.344Z,45.39
2019-03-16T11:56:18.426Z,44.98
2019-03-16T12:01:22.507Z,44.98
2019-03-16T12:06:26.269Z,45.01
2019-03-16T12:11:30.096Z,45.01
2019-03-16T12:16:33.858Z,44.94
2019-03-16T12:21:37.627Z,44.94
2019-03-16T12:26:41.390Z,45.05
2019-03-16T12:31:45.159Z,45.09
2019-03-16T12:36:49.045Z,45.08
2019-03-16T12:41:52.814Z,44.96
2019-03-16T12:46:56.709Z,45.00
2019-03-16T12:52:00.468Z,45.11
2019-03-16T12:57:04.365Z,45.58
2019-03-16T13:02:08.241Z,45.58
2019-03-16T13:07:12.023Z,45.47
2019-03-16T13:12:15.802Z,45.65
2019-03-16T13:17:19.715Z,45.65
2019-03-16T13:22:23.495Z,45.57
2019-03-16T13:27:27.432Z,45.09
2019-03-16T13:32:31.293Z,45.09
2019-03-16T13:37:35.159Z,45.53
2019-03-16T13:42:38.925Z,45.19
2019-03-16T13:47:42.716Z,45.23
2019-03-16T13:52:46.558Z,45.78
2019-03-16T13:57:50.349Z,45.78
2019-03-16T14:02:54.425Z,45.56
2019-03-16T14:07:58.192Z,45.47
2019-03-16T14:13:02.224Z,45.47
2019-03-16T14:18:06.083Z,46.03
2019-03-16T14:23:09.934Z,46.00
2019-03-16T14:28:14.011Z,45.75
2019-03-16T14:33:17.857Z,45.14
2019-03-16T14:38:21.726Z,45.40
2019-03-16T14:43:25.512Z,45.48
2019-03-16T14:48:29.453Z,44.89
2019-03-16T14:53:33.303Z,44.81
2019-03-16T14:58:37.150Z,44.49
2019-03-16T15:03:40.986Z,44.74
2019-03-16T15:08:44.860Z,44.15
2019-03-16T15:13:48.692Z,44.55
2019-03-16T15:18:52.514Z,44.71
2019-03-16T15:23:56.349Z,44.71
2019-03-16T15:29:00.217Z,44.44
2019-03-16T15:34:04.037Z,44.44
2019-03-16T15:39:08.298Z,44.24
2019-03-16T15:44:12.044Z,43.88
2019-03-16T15:49:15.838Z,44.22
2019-03-16T15:54:19.608Z,44.55
2019-03-16T15:59:23.429Z,43.97
2019-03-16T16:04:27.245Z,43.99
2019-03-16T16:09:31.032Z,44.47
2019-03-16T16:14:34.773Z,44.47
2019-03-16T16:19:38.596Z,44.06
2019-03-16T16:24:42.361Z,43.89
2019-03-16T16:29:46.574Z,43.70
2019-03-16T16:34:50.467Z,43.70
2019-03-16T16:39:54.228Z,44.58
2019-03-16T16:44:57.999Z,44.50
2019-03-16T16:50:01.800Z,45.44
2019-03-16T16:55:06.624Z,44.71
2019-03-16T17:00:13.080Z,44.47
2019-03-16T17:05:16.918Z,44.47
2019-03-16T17:10:20.683Z,45.55
2019-03-16T17:15:24.454Z,45.29
2019-03-16T17:20:28.292Z,45.04
2019-03-16T17:25:32.033Z,45.18
2019-03-16T17:30:36.077Z,44.30
2019-03-16T17:35:39.862Z,44.30
2019-03-16T17:40:44.014Z,44.38
2019-03-16T17:45:47.803Z,44.21
2019-03-16T17:50:51.588Z,44.89
2019-03-16T17:55:55.359Z,44.88
2019-03-16T18:00:59.272Z,44.50
2019-03-16T18:06:03.085Z,44.50
2019-03-16T18:11:07.063Z,43.87
2019-03-16T18:16:10.848Z,44.18
2019-03-16T18:21:14.636Z,43.81
2019-03-16T18:26:18.420Z,44.04
2019-03-16T18:31:22.330Z,44.01
2019-03-16T18:36:27.122Z,44.13
2019-03-16T18:41:30.933Z,44.19
2019-03-16T18:46:34.761Z,43.87
2019-03-16T18:51:38.578Z,44.11
2019-03-16T18:56:42.371Z,43.89
2019-03-16T19:01:46.153Z,43.89
2019-03-16T19:06:49.915Z,43.31
2019-03-16T19:11:53.824Z,43.59
2019-03-16T19:16:57.670Z,43.45
2019-03-16T19:22:01.451Z,43.45
2019-03-16T19:27:05.228Z,43.09
2019-03-16T19:32:09.010Z,43.39
2019-03-16T19:37:12.794Z,42.87
2019-03-16T19:42:16.563Z,43.11
2019-03-16T19:47:20.371Z,43.29
2019-03-16T19:52:24.168Z,43.60
2019-03-16T19:57:27.957Z,43.31
2019-03-16T20:02:31.720Z,43.33
2019-03-16T20:07:35.490Z,42.94
2019-03-16T20:12:39.309Z,42.94
2019-03-16T20:17:43.282Z,43.60
2019-03-16T20:22:47.397Z,42.87
2019-03-16T20:27:51.327Z,42.64
2019-03-16T20:33:03.734Z,42.88
2019-03-16T20:38:00.635Z,42.27
2019-03-16T20:43:04.401Z,42.27
2019-03-16T20:48:08.234Z,43.29
2019-03-16T20:53:12.031Z,42.64
2019-03-16T20:58:15.878Z,43.45
2019-03-16T21:03:19.693Z,43.61
2019-03-16T21:08:23.492Z,43.46
2019-03-16T21:13:27.234Z,43.46
2019-03-16T21:18:31.026Z,43.69
2019-03-16T21:23:34.877Z,43.78
2019-03-16T21:28:38.650Z,43.78
2019-03-16T21:33:42.469Z,43.70
2019-03-16T21:38:46.269Z,44.05
2019-03-16T21:43:50.057Z,44.27
2019-03-16T21:48:53.843Z,44.27
2019-03-16T21:53:57.614Z,43.70
2019-03-16T21:59:01.585Z,44.20
2019-03-16T22:04:05.378Z,43.84
2019-03-16T22:09:09.304Z,44.38
2019-03-16T22:14:13.070Z,43.83
2019-03-16T22:19:16.858Z,43.87
2019-03-16T22:24:20.640Z,44.16
2019-03-16T22:29:24.409Z,44.59
2019-03-16T22:34:28.205Z,44.59
2019-03-16T22:39:32.035Z,44.31
2019-03-16T22:44:35.813Z,44.79
2019-03-16T22:49:39.597Z,44.79
2019-03-16T22:54:43.381Z,45.26
2019-03-16T22:59:47.146Z,44.29
2019-03-16T23:04:53.342Z,45.42
2019-03-16T23:09:57.167Z,44.61
2019-03-16T23:15:00.993Z,44.84
2019-03-16T23:20:04.933Z,44.84
2019-03-16T23:25:08.718Z,45.34
2019-03-16T23:30:12.498Z,45.39
2019-03-16T23:35:16.378Z,45.65
2019-03-16T23:40:20.145Z,45.65
2019-03-16T23:45:23.933Z,45.73
2019-03-16T23:50:27.714Z,45.86
2019-03-16T23:55:31.586Z,46.20
